createdAt,value
2019-04-23T00:01:54.389Z,5.93
2019-04-23T00:04:20.423Z,7.50
2019-04-23T00:07:10.692Z,4.73
2019-04-23T00:09:22.389Z,4.77
2019-04-23T00:11:49.540Z,5.57
2019-04-23T00:14:22.111Z,6.60
2019-04-23T00:16:52.605Z,5.30
2019-04-23T00:19:23.007Z,8.03
2019-04-23T00:21:55.024Z,4.20
2019-04-23T00:27:22.567Z,5.13
2019-04-23T00:29:46.305Z,5.40
2019-04-23T00:32:15.144Z,5.93
2019-04-23T00:34:47.337Z,2.60
2019-04-23T00:37:23.795Z,6.63
2019-04-23T00:39:46.842Z,3.63
2019-04-23T00:42:18.320Z,5.10
2019-04-23T00:44:47.559Z,5.27
2019-04-23T00:47:20.923Z,6.63
2019-04-23T00:49:51.155Z,4.03
2019-04-23T00:52:15.120Z,5.00
2019-04-23T00:54:49.038Z,6.40
2019-04-23T00:57:19.431Z,5.57
2019-04-23T00:59:55.868Z,5.37
2019-04-23T01:02:16.641Z,6.87
2019-04-23T01:04:47.789Z,5.30
2019-04-23T01:07:18.919Z,3.57
2019-04-23T01:10:06.171Z,4.60
2019-04-23T01:12:31.255Z,3.57
2019-04-23T01:14:56.304Z,6.20
2019-04-23T01:19:54.823Z,3.70
2019-04-23T01:22:06.420Z,4.93
2019-04-23T01:24:46.667Z,3.63
2019-04-23T01:27:59.129Z,5.60
2019-04-23T01:32:36.533Z,4.80
2019-04-23T01:35:17.886Z,6.40
2019-04-23T01:47:45.641Z,4.80
2019-04-23T01:50:21.820Z,4.00
2019-04-23T01:52:59.336Z,4.40
2019-04-23T01:55:15.494Z,4.20
2019-04-23T01:57:46.622Z,5.23
2019-04-23T02:00:20.572Z,3.67
2019-04-23T02:02:51.051Z,3.37
2019-04-23T02:10:23.573Z,4.20
2019-04-23T02:12:49.921Z,4.23
2019-04-23T02:15:18.091Z,3.47
2019-04-23T02:18:08.869Z,6.00
2019-04-23T02:20:23.843Z,4.87
2019-04-23T02:25:26.478Z,5.33
2019-04-23T02:27:54.076Z,4.70
2019-04-23T02:30:49.507Z,4.27
2019-04-23T02:33:10.627Z,5.53
2019-04-23T02:35:50.498Z,7.27
2019-04-23T02:43:13.390Z,3.87
2019-04-23T02:45:36.099Z,3.00
2019-04-23T02:48:05.828Z,4.70
2019-04-23T02:50:34.551Z,4.97
2019-04-23T02:52:56.163Z,3.37
2019-04-23T02:55:38.525Z,3.90
2019-04-23T03:00:28.763Z,5.27
2019-04-23T03:03:01.925Z,4.57
2019-04-23T03:05:24.522Z,3.97
2019-04-23T03:08:12.776Z,4.03
2019-04-23T03:13:01.674Z,2.23
2019-04-23T03:15:43.692Z,5.20
2019-04-23T03:20:51.679Z,4.93
2019-04-23T03:25:54.030Z,3.43
2019-04-23T03:28:23.020Z,4.17
2019-04-23T03:31:57.982Z,4.53
2019-04-23T03:34:31.973Z,2.37
2019-04-23T03:38:36.405Z,4.20
2019-04-23T03:40:46.262Z,2.27
2019-04-23T03:43:27.083Z,4.83
2019-04-23T03:46:00.815Z,3.03
2019-04-23T03:48:26.201Z,9.53
2019-04-23T03:53:24.423Z,4.67
2019-04-23T03:55:56.229Z,3.57
2019-04-23T03:58:28.281Z,4.80
2019-04-23T04:06:05.522Z,5.93
2019-04-23T04:08:18.382Z,3.70
2019-04-23T04:10:57.414Z,5.00
2019-04-23T04:13:22.172Z,3.40
2019-04-23T04:16:05.046Z,4.60
2019-04-23T04:23:23.597Z,3.57
2019-04-23T04:28:34.655Z,4.07
2019-04-23T04:35:47.372Z,5.33
2019-04-23T04:40:55.296Z,5.10
2019-04-23T04:46:05.329Z,4.10
2019-04-23T04:48:27.236Z,4.57
2019-04-23T04:56:07.747Z,4.77
2019-04-23T04:58:21.149Z,4.40
2019-04-23T05:01:03.974Z,6.70
2019-04-23T05:06:11.331Z,4.40
2019-04-23T05:08:32.429Z,3.87
2019-04-23T05:18:24.046Z,10.90
2019-04-23T05:20:52.960Z,7.67
2019-04-23T05:23:25.682Z,5.97
2019-04-23T05:25:49.927Z,10.00
2019-04-23T05:28:30.227Z,10.30
2019-04-23T05:31:00.033Z,7.90
2019-04-23T05:33:25.365Z,7.37
2019-04-23T05:38:37.110Z,7.43
2019-04-23T05:43:35.791Z,14.57
2019-04-23T05:46:04.488Z,8.63
2019-04-23T05:48:48.721Z,15.03
2019-04-23T05:51:04.625Z,10.50
2019-04-23T05:53:33.531Z,8.77
2019-04-23T05:56:04.748Z,8.43
2019-04-23T05:58:38.702Z,11.53
2019-04-23T06:01:41.991Z,8.43
2019-04-23T06:03:56.756Z,9.57
2019-04-23T06:06:29.730Z,8.53
2019-04-23T06:08:53.198Z,7.60
2019-04-23T06:11:28.482Z,11.87
2019-04-23T06:14:00.230Z,9.37
2019-04-23T06:16:30.938Z,14.73
2019-04-23T06:18:57.540Z,11.87
2019-04-23T06:21:24.142Z,6.10
2019-04-23T06:23:52.098Z,8.17
2019-04-23T06:26:33.054Z,7.27
2019-04-23T06:28:59.403Z,6.90
2019-04-23T06:31:22.827Z,8.53
2019-04-23T06:33:54.151Z,7.57
2019-04-23T06:36:27.750Z,7.10
2019-04-23T06:38:57.034Z,9.93
2019-04-23T06:41:23.085Z,9.60
2019-04-23T06:44:04.591Z,9.17
2019-04-23T06:46:28.983Z,6.87
2019-04-23T06:48:56.765Z,8.77
2019-04-23T06:51:28.226Z,6.63
2019-04-23T06:53:53.383Z,6.53
2019-04-23T06:56:24.989Z,7.77
2019-04-23T06:58:47.329Z,8.53
2019-04-23T07:01:19.125Z,7.80
2019-04-23T07:04:02.945Z,6.23
2019-04-23T07:09:12.037Z,7.10
2019-04-23T07:11:31.579Z,7.60
2019-04-23T07:16:21.469Z,9.83
2019-04-23T07:19:04.682Z,6.03
2019-04-23T07:21:21.977Z,7.60
2019-04-23T07:24:00.881Z,6.93
2019-04-23T07:29:08.983Z,6.80
2019-04-23T07:31:44.042Z,7.93
2019-04-23T07:33:57.899Z,5.63
2019-04-23T07:36:32.411Z,6.37
2019-04-23T07:41:47.948Z,5.90
2019-04-23T07:47:11.292Z,5.50
2019-04-23T07:49:31.160Z,5.53
2019-04-23T07:52:03.071Z,5.23
2019-04-23T07:54:31.720Z,5.13
2019-04-23T07:57:12.132Z,5.17
2019-04-23T07:59:33.312Z,6.57
2019-04-23T08:02:12.849Z,6.50
2019-04-23T08:04:36.931Z,5.00
2019-04-23T08:07:00.954Z,4.37
2019-04-23T08:09:34.418Z,5.93
2019-04-23T08:12:07.935Z,4.80
2019-04-23T08:14:34.302Z,4.73
2019-04-23T08:16:58.254Z,5.90
2019-04-23T08:19:40.970Z,4.27
2019-04-23T08:22:13.895Z,5.40
2019-04-23T08:24:48.617Z,5.83
2019-04-23T08:27:16.391Z,4.67
2019-04-23T08:29:58.469Z,6.03
2019-04-23T08:32:22.352Z,4.87
2019-04-23T08:35:04.343Z,6.00
2019-04-23T08:37:38.002Z,6.37
2019-04-23T08:48:03.645Z,6.27
2019-04-23T08:50:34.123Z,3.80
2019-04-23T08:53:03.770Z,4.07
2019-04-23T08:55:32.567Z,4.40
2019-04-23T08:57:55.488Z,5.67
2019-04-23T09:00:35.474Z,4.00
2019-04-23T09:03:00.543Z,4.07
2019-04-23T09:05:32.488Z,4.63
2019-04-23T09:13:14.450Z,4.73
2019-04-23T09:15:39.652Z,3.77
2019-04-23T09:22:53.022Z,5.13
2019-04-23T09:25:36.755Z,6.03
2019-04-23T09:27:59.381Z,3.50
2019-04-23T09:30:28.716Z,4.53
2019-04-23T09:33:06.162Z,4.13
2019-04-23T09:35:38.943Z,4.93
2019-04-23T09:38:11.521Z,4.00
2019-04-23T09:41:04.152Z,5.90
2019-04-23T09:43:22.779Z,9.90
2019-04-23T09:46:11.994Z,5.07
2019-04-23T09:48:48.824Z,6.07
2019-04-23T09:51:10.193Z,4.90
2019-04-23T09:53:34.350Z,6.00
2019-04-23T09:56:01.122Z,8.33
2019-04-23T09:58:28.825Z,8.87
2019-04-23T10:01:25.767Z,8.43
2019-04-23T10:03:43.544Z,10.37
2019-04-23T10:06:04.312Z,9.43
2019-04-23T10:08:32.157Z,12.23
2019-04-23T10:10:57.468Z,7.43
2019-04-23T10:13:26.175Z,13.00
2019-04-23T10:15:55.538Z,6.20
2019-04-23T10:18:24.425Z,7.93
2019-04-23T10:20:54.279Z,10.87
2019-04-23T10:23:23.215Z,7.10
2019-04-23T10:25:52.253Z,4.80
2019-04-23T10:28:26.458Z,11.57
2019-04-23T10:30:56.471Z,8.93
2019-04-23T10:33:25.489Z,5.50
2019-04-23T10:36:00.854Z,5.90
2019-04-23T10:38:24.642Z,7.20
2019-04-23T10:40:54.215Z,5.97
2019-04-23T10:43:22.759Z,7.43
2019-04-23T10:46:27.927Z,6.00
2019-04-23T10:51:52.155Z,4.83
2019-04-23T10:54:36.298Z,8.23
2019-04-23T10:57:09.262Z,5.00
2019-04-23T11:02:29.532Z,5.13
2019-04-23T11:04:54.401Z,6.40
2019-04-23T11:07:26.374Z,5.97
2019-04-23T11:12:32.888Z,4.07
2019-04-23T11:14:49.806Z,5.93
2019-04-23T11:17:26.006Z,5.57
2019-04-23T11:19:56.759Z,7.47
2019-04-23T11:22:39.294Z,5.33
2019-04-23T11:24:48.360Z,6.17
2019-04-23T11:27:22.247Z,4.83
2019-04-23T11:29:48.812Z,5.73
2019-04-23T11:32:46.870Z,8.00
2019-04-23T11:37:37.593Z,5.40
2019-04-23T11:39:49.673Z,4.53
2019-04-23T11:42:17.350Z,4.63
2019-04-23T11:44:56.086Z,4.83
2019-04-23T11:48:00.485Z,9.57
2019-04-23T11:52:32.166Z,6.73
2019-04-23T11:54:53.748Z,20.00
2019-04-23T11:57:29.906Z,9.57
2019-04-23T12:00:05.424Z,11.47
2019-04-23T12:02:33.586Z,10.67
2019-04-23T12:05:29.822Z,16.17
2019-04-23T12:08:11.549Z,14.40
2019-04-23T12:13:26.911Z,12.63
2019-04-23T12:15:56.891Z,17.13
2019-04-23T12:18:51.453Z,11.73
2019-04-23T12:21:08.305Z,16.00
2019-04-23T12:23:43.622Z,8.17
2019-04-23T12:26:14.850Z,9.37
2019-04-23T12:28:29.952Z,11.70
2019-04-23T12:31:08.776Z,10.77
2019-04-23T12:33:51.982Z,5.10
2019-04-23T12:36:28.201Z,10.47
2019-04-23T12:38:48.974Z,5.90
2019-04-23T12:41:21.240Z,7.47
2019-04-23T12:43:54.817Z,9.57
2019-04-23T12:46:26.044Z,7.20
2019-04-23T12:49:03.292Z,8.80
2019-04-23T12:51:34.833Z,11.10
2019-04-23T12:53:52.484Z,15.17
2019-04-23T12:56:31.734Z,7.80
2019-04-23T12:58:44.969Z,8.17
2019-04-23T13:01:25.692Z,9.83
2019-04-23T13:03:45.526Z,11.00
2019-04-23T13:06:20.910Z,8.67
2019-04-23T13:08:53.813Z,4.63
2019-04-23T13:11:30.050Z,10.07
2019-04-23T13:13:58.623Z,10.90
2019-04-23T13:16:39.802Z,9.40
2019-04-23T13:19:03.158Z,7.57
2019-04-23T13:21:45.094Z,5.13
2019-04-23T13:24:09.517Z,8.00
2019-04-23T13:26:35.696Z,10.90
2019-04-23T13:29:23.798Z,10.50
2019-04-23T13:31:35.795Z,17.27
2019-04-23T13:34:20.239Z,11.70
2019-04-23T13:39:21.161Z,14.27
2019-04-23T13:41:43.708Z,12.93
2019-04-23T13:44:10.031Z,11.70
2019-04-23T13:46:35.816Z,8.87
2019-04-23T13:49:07.952Z,8.97
2019-04-23T13:51:39.776Z,12.27
2019-04-23T13:54:24.659Z,12.83
2019-04-23T13:57:06.591Z,12.60
2019-04-23T13:59:26.445Z,9.50
2019-04-23T14:01:39.595Z,7.27
2019-04-23T14:06:51.964Z,7.53
2019-04-23T14:09:31.875Z,7.10
2019-04-23T14:11:45.158Z,7.23
2019-04-23T14:14:38.471Z,9.97
2019-04-23T14:17:18.206Z,9.07
2019-04-23T14:19:21.478Z,10.27
2019-04-23T14:21:51.996Z,7.87
2019-04-23T14:24:45.237Z,10.33
2019-04-23T14:26:50.661Z,12.07
2019-04-23T14:32:05.016Z,9.93
2019-04-23T14:34:29.091Z,10.33
2019-04-23T14:36:59.497Z,11.70
2019-04-23T14:39:24.163Z,10.63
2019-04-23T14:42:03.558Z,18.27
2019-04-23T14:44:20.097Z,17.77
2019-04-23T14:46:58.353Z,19.10
2019-04-23T14:49:40.895Z,10.83
2019-04-23T14:52:00.270Z,10.87
2019-04-23T14:54:52.429Z,24.27
2019-04-23T14:57:09.857Z,14.40
2019-04-23T14:59:19.861Z,7.43
2019-04-23T15:02:05.530Z,12.10
2019-04-23T15:04:36.189Z,13.10
2019-04-23T15:07:10.894Z,12.50
2019-04-23T15:09:36.744Z,12.07
2019-04-23T15:12:11.275Z,11.87
2019-04-23T15:17:09.463Z,12.03
2019-04-23T15:19:40.390Z,12.47
2019-04-23T15:22:15.665Z,14.37
2019-04-23T15:24:40.803Z,9.63
2019-04-23T15:29:26.725Z,9.33
2019-04-23T15:32:07.734Z,9.60
2019-04-23T15:34:30.517Z,8.67
2019-04-23T15:37:23.801Z,7.33
2019-04-23T15:39:42.868Z,6.97
2019-04-23T15:42:12.690Z,10.97
2019-04-23T15:44:32.349Z,7.53
2019-04-23T15:47:12.635Z,8.67
2019-04-23T15:54:42.979Z,5.93
2019-04-23T15:57:07.169Z,7.73
2019-04-23T15:59:45.133Z,8.47
2019-04-23T16:01:43.558Z,6.43
2019-04-23T16:04:12.043Z,5.10
2019-04-23T16:06:41.571Z,7.80
2019-04-23T16:09:39.929Z,6.10
2019-04-23T16:11:59.764Z,9.17
2019-04-23T16:14:49.410Z,5.63
2019-04-23T16:19:53.515Z,8.03
2019-04-23T16:22:30.404Z,7.40
2019-04-23T16:24:55.417Z,5.07
2019-04-23T16:32:31.441Z,7.70
2019-04-23T16:35:10.942Z,5.07
2019-04-23T16:37:26.526Z,5.70
2019-04-23T16:40:01.470Z,6.27
2019-04-23T16:45:07.507Z,5.03
2019-04-23T16:47:24.217Z,4.67
2019-04-23T16:50:05.059Z,7.17
2019-04-23T16:57:37.152Z,6.00
2019-04-23T17:02:28.056Z,6.77
2019-04-23T17:05:02.886Z,5.63
2019-04-23T17:07:21.024Z,4.90
2019-04-23T17:10:08.217Z,6.17
2019-04-23T17:12:17.616Z,3.90
2019-04-23T17:15:02.726Z,5.73
2019-04-23T17:17:27.320Z,9.87
2019-04-23T17:20:00.646Z,3.73
2019-04-23T17:22:26.129Z,3.27
2019-04-23T17:25:08.672Z,5.50
2019-04-23T17:27:33.122Z,4.30
2019-04-23T17:29:57.878Z,3.63
2019-04-23T17:32:28.351Z,5.13
2019-04-23T17:35:10.830Z,4.70
2019-04-23T17:37:37.320Z,4.67
2019-04-23T17:42:52.618Z,5.07
2019-04-23T17:48:01.212Z,6.00
2019-04-23T17:50:26.890Z,15.93
2019-04-23T17:52:56.302Z,6.00
2019-04-23T17:55:30.004Z,4.67
2019-04-23T17:58:03.904Z,7.83
2019-04-23T18:00:34.068Z,9.27
2019-04-23T18:03:01.268Z,6.57
2019-04-23T18:05:40.492Z,7.87
2019-04-23T18:10:28.328Z,9.63
2019-04-23T18:12:56.671Z,10.43
2019-04-23T18:15:17.666Z,9.77
2019-04-23T18:18:02.496Z,13.87
2019-04-23T18:20:47.646Z,14.40
2019-04-23T18:23:09.494Z,12.87
2019-04-23T18:25:51.626Z,11.23
2019-04-23T18:28:20.034Z,8.20
2019-04-23T18:36:08.099Z,14.00
2019-04-23T18:38:50.068Z,8.93
2019-04-23T18:46:18.542Z,7.27
2019-04-23T18:51:07.850Z,10.43
2019-04-23T18:53:48.577Z,9.50
2019-04-23T19:04:02.027Z,8.77
2019-04-23T19:06:36.933Z,16.60
2019-04-23T19:09:10.403Z,7.27
2019-04-23T19:12:07.082Z,8.90
2019-04-23T19:17:30.738Z,7.50
2019-04-23T19:19:38.259Z,12.63
2019-04-23T19:24:31.537Z,10.43
2019-04-23T19:29:40.237Z,11.33
2019-04-23T19:34:40.718Z,7.73
2019-04-23T19:39:40.091Z,6.83
2019-04-23T19:42:03.695Z,8.77
2019-04-23T19:44:39.575Z,5.70
2019-04-23T19:49:38.919Z,7.73
2019-04-23T19:52:21.857Z,4.87
2019-04-23T19:57:02.106Z,6.93
2019-04-23T19:59:54.542Z,5.87
2019-04-23T20:02:07.327Z,5.20
2019-04-23T20:12:06.364Z,8.70
2019-04-23T20:14:41.687Z,9.93
2019-04-23T20:27:12.150Z,12.70
2019-04-23T20:35:11.357Z,9.90
2019-04-23T20:40:25.868Z,5.33
2019-04-23T20:45:21.511Z,5.50
2019-04-23T20:47:51.392Z,10.53
2019-04-23T20:50:19.829Z,7.67
2019-04-23T20:52:49.693Z,3.97
2019-04-23T20:55:29.367Z,4.93
2019-04-23T20:58:05.505Z,4.63
2019-04-23T21:00:20.731Z,4.80
2019-04-23T21:10:34.526Z,5.80
2019-04-23T21:20:34.456Z,5.73
2019-04-23T21:23:04.739Z,5.27
2019-04-23T21:25:32.447Z,6.27
2019-04-23T21:28:14.202Z,9.37
2019-04-23T21:33:15.732Z,4.43
2019-04-23T21:38:46.388Z,4.07
2019-04-23T21:41:17.187Z,4.57
2019-04-23T21:44:05.508Z,4.03
2019-04-23T21:49:02.116Z,4.80
2019-04-23T21:51:31.500Z,5.07
2019-04-23T21:53:46.322Z,4.40
2019-04-23T21:56:15.592Z,4.40
2019-04-23T21:58:53.326Z,5.30
2019-04-23T22:01:37.847Z,4.03
2019-04-23T22:06:23.631Z,5.00
2019-04-23T22:08:54.759Z,4.80
2019-04-23T22:11:43.901Z,4.67
2019-04-23T22:13:57.907Z,3.53
2019-04-23T22:16:25.461Z,4.23
2019-04-23T22:19:05.696Z,4.37
2019-04-23T22:21:19.530Z,3.17
2019-04-23T22:23:57.675Z,4.53
2019-04-23T22:26:25.381Z,3.50
2019-04-23T22:29:05.668Z,3.53
2019-04-23T22:31:24.586Z,3.93
2019-04-23T22:33:54.920Z,3.90
2019-04-23T22:38:49.220Z,3.10
2019-04-23T22:41:16.204Z,3.17
2019-04-23T22:43:59.373Z,3.30
2019-04-23T22:46:28.014Z,4.80
2019-04-23T22:49:07.833Z,3.27
2019-04-23T22:53:58.600Z,3.13
2019-04-23T22:56:25.211Z,3.97
2019-04-23T22:59:01.502Z,2.90
2019-04-23T23:01:42.239Z,4.33
2019-04-23T23:04:04.578Z,3.40
2019-04-23T23:06:46.598Z,4.80
2019-04-23T23:09:25.318Z,3.83
2019-04-23T23:11:40.552Z,3.17
2019-04-23T23:14:14.081Z,3.77
2019-04-23T23:16:39.275Z,2.60
2019-04-23T23:21:48.547Z,2.67
2019-04-23T23:26:54.184Z,5.70
2019-04-23T23:29:00.835Z,2.83
2019-04-23T23:31:39.753Z,3.90
2019-04-23T23:36:38.425Z,3.00
2019-04-23T23:41:44.881Z,2.87
2019-04-23T23:44:28.397Z,2.70
2019-04-23T23:49:11.403Z,2.50
2019-04-23T23:51:40.055Z,3.13
2019-04-23T23:54:08.244Z,2.60
2019-04-23T23:56:58.190Z,4.17
